Time;durP1;ratioP1;P1;durP2;ratioP2;P2;SDS_P1;SDS_P2;PMS_P1;PMS_P2;Temp;Humidity;BMP_temperature;BMP_pressure;BME280_temperature;BME280_humidity;BME280_pressure;Samples;Min_cycle;Max_cycle;Signal;HPM_P1;HPM_P2
2023/01/27 00:00:13;;;;;;;19.67;11.60;;;2.40;99.90;;;;;;5076106;28;20676;-58
2023/01/27 00:02:40;;;;;;;16.27;10.97;;;2.30;99.90;;;;;;5076334;28;20216;-58
2023/01/27 00:05:08;;;;;;;16.03;11.70;;;2.20;99.90;;;;;;5076141;28;20221;-58
2023/01/27 00:07:35;;;;;;;18.80;12.73;;;2.00;99.90;;;;;;5075783;28;20232;-57
2023/01/27 00:10:02;;;;;;;19.43;13.43;;;1.90;99.90;;;;;;5075752;28;20745;-58
2023/01/27 00:15:15;;;;;;;20.67;13.67;;;2.10;99.90;;;;;;5075396;28;20235;-57
2023/01/27 00:17:42;;;;;;;19.50;14.13;;;2.00;99.90;;;;;;5075502;28;20632;-58
2023/01/27 00:20:10;;;;;;;18.27;14.00;;;2.20;99.90;;;;;;5076065;28;20219;-58
2023/01/27 00:25:21;;;;;;;27.20;12.93;;;2.30;99.90;;;;;;5075838;28;20741;-59
2023/01/27 00:27:48;;;;;;;19.07;13.73;;;2.10;99.90;;;;;;5074879;28;20255;-57
2023/01/27 00:30:16;;;;;;;17.77;13.17;;;1.90;99.90;;;;;;5075979;28;20213;-58
2023/01/27 00:35:28;;;;;;;19.23;14.00;;;1.90;99.90;;;;;;5075385;28;20235;-58
2023/01/27 00:37:55;;;;;;;16.70;12.37;;;2.20;99.90;;;;;;5075820;28;20234;-58
2023/01/27 00:40:22;;;;;;;19.70;13.23;;;2.40;99.90;;;;;;5076053;28;20464;-58
2023/01/27 00:42:48;;;;;;;17.23;12.50;;;2.50;99.90;;;;;;5075436;28;20208;-57
2023/01/27 00:48:01;;;;;;;19.30;13.90;;;2.30;99.90;;;;;;5075686;28;20293;-58
2023/01/27 00:50:27;;;;;;;18.20;12.53;;;2.30;99.90;;;;;;5075513;28;20209;-57
2023/01/27 00:52:56;;;;;;;16.73;12.43;;;2.20;99.90;;;;;;5075233;28;20209;-57
2023/01/27 00:55:23;;;;;;;18.23;13.43;;;2.20;99.90;;;;;;5075297;28;20227;-58
2023/01/27 00:57:50;;;;;;;18.90;12.40;;;2.30;99.90;;;;;;5075466;28;20216;-57
2023/01/27 01:00:18;;;;;;;16.27;11.93;;;2.20;99.90;;;;;;5075364;28;20208;-58
2023/01/27 01:02:45;;;;;;;19.60;12.87;;;2.10;99.90;;;;;;5075166;28;20210;-58
2023/01/27 01:05:12;;;;;;;17.03;12.67;;;2.00;99.90;;;;;;5074630;28;20225;-58
2023/01/27 01:07:38;;;;;;;19.10;12.50;;;2.00;99.90;;;;;;5075044;28;20216;-58
2023/01/27 01:10:06;;;;;;;15.90;11.53;;;2.00;99.90;;;;;;5075017;28;20637;-58
2023/01/27 01:12:33;;;;;;;16.93;11.47;;;1.90;99.90;;;;;;5074889;28;20669;-58
2023/01/27 01:15:01;;;;;;;13.03;10.07;;;1.80;99.90;;;;;;5074872;28;20229;-58
2023/01/27 01:17:29;;;;;;;16.60;10.60;;;1.60;99.90;;;;;;5074835;28;20326;-59
2023/01/27 01:19:56;;;;;;;14.13;10.27;;;1.50;99.90;;;;;;5074492;28;20217;-58
2023/01/27 01:22:22;;;;;;;16.97;10.93;;;1.50;99.90;;;;;;5074308;28;20216;-58
2023/01/27 01:24:49;;;;;;;15.90;9.97;;;1.60;99.90;;;;;;5074717;28;20200;-58
2023/01/27 01:27:16;;;;;;;14.83;10.43;;;1.70;99.90;;;;;;5074632;28;20201;-58
2023/01/27 01:29:43;;;;;;;15.10;10.37;;;1.60;99.90;;;;;;5074380;28;20205;-58
2023/01/27 01:32:09;;;;;;;13.67;10.33;;;1.60;99.90;;;;;;5074230;28;20236;-58
2023/01/27 01:34:38;;;;;;;18.80;11.40;;;1.60;99.90;;;;;;5074060;28;20216;-58
2023/01/27 01:37:05;;;;;;;17.40;10.37;;;1.60;99.90;;;;;;5074299;28;20232;-58
2023/01/27 01:39:32;;;;;;;19.67;10.63;;;1.70;99.90;;;;;;5073976;28;20208;-58
2023/01/27 01:42:00;;;;;;;16.03;10.07;;;1.60;99.90;;;;;;5073826;28;20599;-59
2023/01/27 01:44:28;;;;;;;20.37;11.30;;;1.60;99.90;;;;;;5074262;28;20205;-58
2023/01/27 01:46:55;;;;;;;16.90;10.23;;;1.60;99.90;;;;;;5073589;28;20235;-58
2023/01/27 01:49:26;;;;;;;15.77;11.80;;;1.50;99.90;;;;;;5074226;28;20211;-58
2023/01/27 01:51:57;;;;;;;14.97;10.97;;;1.70;99.90;;;;;;5074299;28;20205;-58
2023/01/27 01:54:28;;;;;;;16.57;12.33;;;1.90;99.90;;;;;;5074246;28;20224;-59
2023/01/27 01:56:58;;;;;;;15.63;11.07;;;2.10;99.90;;;;;;5073985;28;20233;-58
2023/01/27 01:59:31;;;;;;;14.90;10.43;;;2.20;99.90;;;;;;5074048;28;20665;-58
2023/01/27 02:02:02;;;;;;;15.37;10.40;;;2.20;99.90;;;;;;5073724;28;20209;-57
2023/01/27 02:04:32;;;;;;;14.97;10.87;;;2.00;99.90;;;;;;5074618;28;20201;-58
2023/01/27 02:07:07;;;;;;;17.60;10.97;;;2.00;99.90;;;;;;5074438;28;20229;-58
2023/01/27 02:09:34;;;;;;;15.00;10.53;;;2.00;99.90;;;;;;5074236;28;20204;-58
2023/01/27 02:12:00;;;;;;;15.40;10.97;;;1.80;99.90;;;;;;5073607;28;20211;-57
2023/01/27 02:14:27;;;;;;;15.07;11.10;;;1.60;99.90;;;;;;5073698;28;20221;-57
2023/01/27 02:16:55;;;;;;;16.83;11.60;;;1.70;99.90;;;;;;5074081;28;20221;-57
2023/01/27 02:19:26;;;;;;;16.93;11.87;;;1.80;99.90;;;;;;5073836;28;20208;-57
2023/01/27 02:21:56;;;;;;;14.83;11.53;;;2.00;99.90;;;;;;5073562;28;20209;-58
2023/01/27 02:24:29;;;;;;;15.57;11.40;;;2.30;99.90;;;;;;5073847;28;20212;-59
2023/01/27 02:26:57;;;;;;;14.60;10.33;;;2.60;99.90;;;;;;5120356;22;20228;-65
2023/01/27 02:29:24;;;;;;;17.00;11.07;;;2.70;99.90;;;;;;5110738;28;20200;-64
2023/01/27 02:31:51;;;;;;;16.20;11.30;;;2.60;99.90;;;;;;5112509;28;20207;-65
2023/01/27 02:34:21;;;;;;;16.60;11.30;;;2.60;99.90;;;;;;5112594;28;20200;-64
2023/01/27 02:36:52;;;;;;;18.20;11.83;;;2.60;99.90;;;;;;5112530;28;20653;-65
2023/01/27 02:39:23;;;;;;;13.37;10.00;;;2.70;99.90;;;;;;5112667;28;20276;-65
2023/01/27 02:41:52;;;;;;;14.63;10.07;;;2.60;99.90;;;;;;5112578;28;20213;-65
2023/01/27 02:44:20;;;;;;;19.37;11.90;;;2.40;99.90;;;;;;5112966;28;20207;-64
2023/01/27 02:46:47;;;;;;;15.63;11.20;;;2.50;99.90;;;;;;5113145;28;20246;-65
2023/01/27 02:49:14;;;;;;;17.87;11.27;;;2.60;99.90;;;;;;5112605;28;20211;-65
2023/01/27 02:51:41;;;;;;;17.63;11.77;;;2.70;99.90;;;;;;5113321;28;20682;-65
2023/01/27 02:54:08;;;;;;;17.93;12.47;;;2.60;99.90;;;;;;5116394;28;20203;-65
2023/01/27 02:56:35;;;;;;;19.67;12.40;;;2.60;99.90;;;;;;5116504;28;20280;-64
2023/01/27 02:59:02;;;;;;;19.77;12.43;;;2.70;99.90;;;;;;5116690;28;20253;-64
2023/01/27 03:01:31;;;;;;;16.43;11.60;;;2.90;99.90;;;;;;5116152;28;20248;-65
2023/01/27 03:03:57;;;;;;;17.40;11.70;;;3.00;99.90;;;;;;5116467;28;20199;-66
2023/01/27 03:06:24;;;;;;;17.33;11.20;;;3.10;99.90;;;;;;5115960;28;20227;-64
2023/01/27 03:08:51;;;;;;;18.07;11.63;;;3.00;99.90;;;;;;5116280;28;20707;-64
2023/01/27 03:12:18;;;;;;;16.13;10.87;;;2.80;99.90;;;;;;5116143;28;20239;-65
2023/01/27 03:14:05;;;;;;;16.17;11.80;;;2.60;99.90;;;;;;5115993;28;20263;-64
2023/01/27 03:19:18;;;;;;;16.80;11.13;;;2.50;99.90;;;;;;5116333;28;20206;-64
2023/01/27 03:21:45;;;;;;;19.90;12.93;;;2.40;99.90;;;;;;5116061;28;20211;-64
2023/01/27 03:24:11;;;;;;;18.87;12.53;;;2.40;99.90;;;;;;5116241;28;20207;-64
2023/01/27 03:26:38;;;;;;;17.37;12.57;;;2.50;99.90;;;;;;5115673;28;20649;-65
2023/01/27 03:31:50;;;;;;;18.83;11.77;;;2.60;99.90;;;;;;5115677;28;20268;-64
2023/01/27 03:34:17;;;;;;;18.47;11.90;;;2.50;99.90;;;;;;5115893;28;20211;-65
2023/01/27 03:47:43;;;;;;;17.40;11.40;;;2.70;99.90;;;;;;5115549;28;20711;-64
2023/01/27 03:50:12;;;;;;;18.90;11.67;;;2.80;99.90;;;;;;5115396;28;20211;-64
2023/01/27 03:52:39;;;;;;;16.07;10.80;;;2.80;99.90;;;;;;5115464;28;20635;-65
2023/01/27 03:55:08;;;;;;;15.57;10.27;;;2.90;99.90;;;;;;5115259;28;20694;-63
2023/01/27 03:57:36;;;;;;;14.00;10.13;;;2.90;99.90;;;;;;5115414;27;20204;-64
2023/01/27 04:00:04;;;;;;;17.13;11.03;;;3.00;99.90;;;;;;5115243;28;20203;-64
2023/01/27 04:08:05;;;;;;;14.87;10.07;;;3.20;99.90;;;;;;5115432;28;20206;-64
2023/01/27 04:10:31;;;;;;;12.93;9.83;;;2.90;99.90;;;;;;5115287;28;20671;-63
2023/01/27 04:12:57;;;;;;;16.37;11.27;;;2.80;99.90;;;;;;5114692;28;20639;-64
2023/01/27 04:15:24;;;;;;;191.83;134.57;;;2.60;99.90;;;;;;5115359;28;20230;-64
2023/01/27 04:17:50;;;;;;;18.67;12.90;;;2.30;99.90;;;;;;5115240;28;20261;-64
2023/01/27 04:20:19;;;;;;;17.03;11.23;;;2.30;99.90;;;;;;5114994;28;20208;-64
2023/01/27 04:22:45;;;;;;;15.83;11.70;;;2.40;99.90;;;;;;5114614;28;20726;-65
2023/01/27 04:25:12;;;;;;;16.37;11.27;;;2.20;99.90;;;;;;5114577;28;20675;-65
2023/01/27 04:27:39;;;;;;;20.47;12.80;;;2.00;99.90;;;;;;5114723;28;20210;-64
2023/01/27 04:30:07;;;;;;;17.10;11.20;;;2.00;99.90;;;;;;5114784;28;20204;-64
2023/01/27 04:32:33;;;;;;;19.50;12.87;;;2.10;99.90;;;;;;5115048;28;20207;-65
2023/01/27 04:35:00;;;;;;;16.33;11.50;;;2.20;99.90;;;;;;5114754;28;20220;-64
2023/01/27 04:37:28;;;;;;;17.43;11.40;;;2.40;99.90;;;;;;5114663;28;20258;-64
2023/01/27 04:39:55;;;;;;;20.80;13.43;;;2.30;99.90;;;;;;5114454;28;20204;-64
2023/01/27 04:42:22;;;;;;;17.30;11.93;;;2.10;99.90;;;;;;5114076;28;20218;-65
2023/01/27 04:44:48;;;;;;;18.87;11.87;;;2.20;99.90;;;;;;5114717;28;20204;-64
2023/01/27 04:47:15;;;;;;;17.93;11.87;;;2.20;99.90;;;;;;5114453;28;20231;-64
2023/01/27 04:49:42;;;;;;;17.87;12.33;;;2.10;99.90;;;;;;5114464;28;20534;-63
2023/01/27 04:52:09;;;;;;;16.40;11.87;;;2.00;99.90;;;;;;5114187;28;20208;-64
2023/01/27 04:54:37;;;;;;;19.27;12.87;;;2.00;99.90;;;;;;5114206;28;20203;-64
2023/01/27 04:57:04;;;;;;;18.50;13.23;;;2.00;99.90;;;;;;5113973;28;20714;-65
2023/01/27 04:59:31;;;;;;;19.00;12.53;;;2.10;99.90;;;;;;5114314;28;20210;-64
2023/01/27 05:01:58;;;;;;;16.33;11.83;;;2.10;99.90;;;;;;5113986;28;20233;-64
2023/01/27 05:04:25;;;;;;;17.60;12.03;;;2.00;99.90;;;;;;5113909;28;20234;-64
2023/01/27 05:06:52;;;;;;;18.27;12.50;;;1.90;99.90;;;;;;5113844;28;20251;-65
2023/01/27 05:09:19;;;;;;;17.73;12.10;;;2.10;99.90;;;;;;5113684;28;20289;-65
2023/01/27 05:11:47;;;;;;;17.10;11.77;;;2.30;99.90;;;;;;5113857;28;20212;-64
2023/01/27 05:14:13;;;;;;;17.60;12.50;;;2.40;99.90;;;;;;5113547;28;20280;-65
2023/01/27 05:16:40;;;;;;;18.60;12.90;;;2.50;99.90;;;;;;5113711;28;20327;-66
2023/01/27 05:19:08;;;;;;;20.13;12.60;;;2.50;99.90;;;;;;5113711;28;20213;-64
2023/01/27 05:21:34;;;;;;;18.77;12.40;;;2.50;99.90;;;;;;5113509;28;20260;-63
2023/01/27 05:24:02;;;;;;;19.63;13.20;;;2.40;99.90;;;;;;5113547;28;20256;-63
2023/01/27 05:26:29;;;;;;;17.77;12.47;;;2.20;99.90;;;;;;5113397;28;20232;-65
2023/01/27 05:28:58;;;;;;;17.87;11.83;;;2.00;99.90;;;;;;5113645;28;20253;-66
2023/01/27 05:31:27;;;;;;;18.13;13.03;;;1.90;99.90;;;;;;5113518;28;20206;-65
2023/01/27 05:33:55;;;;;;;21.23;12.17;;;1.90;99.90;;;;;;5113253;28;20209;-66
2023/01/27 05:36:24;;;;;;;22.87;14.77;;;2.10;99.90;;;;;;5113025;28;20654;-66
2023/01/27 05:38:51;;;;;;;18.03;12.37;;;2.20;99.90;;;;;;5113357;28;20203;-64
2023/01/27 05:41:19;;;;;;;17.87;11.50;;;2.30;99.90;;;;;;5113541;28;20207;-66
2023/01/27 05:43:46;;;;;;;19.30;12.83;;;2.30;99.90;;;;;;5113171;28;20207;-64
2023/01/27 05:46:16;;;;;;;17.93;11.97;;;2.20;99.90;;;;;;5113009;28;20592;-65
2023/01/27 05:48:45;;;;;;;17.73;12.43;;;2.10;99.90;;;;;;5113100;28;20203;-65
2023/01/27 05:51:13;;;;;;;16.63;11.70;;;2.00;99.90;;;;;;5113538;28;20237;-66
2023/01/27 05:53:40;;;;;;;18.17;11.87;;;1.90;99.90;;;;;;5112741;28;20571;-66
2023/01/27 05:56:09;;;;;;;17.97;11.80;;;1.80;99.90;;;;;;5113094;28;20237;-65
2023/01/27 05:58:36;;;;;;;17.90;11.97;;;1.80;99.90;;;;;;5112945;28;20683;-65
2023/01/27 06:01:08;;;;;;;16.97;10.80;;;1.90;99.90;;;;;;5112926;28;20207;-67
2023/01/27 06:03:36;;;;;;;16.77;10.47;;;1.80;99.90;;;;;;5112489;28;20613;-65
2023/01/27 06:06:03;;;;;;;15.50;10.13;;;1.70;99.90;;;;;;5112803;28;20224;-65
2023/01/27 06:08:30;;;;;;;16.37;11.00;;;1.60;99.90;;;;;;5112794;28;20253;-66
2023/01/27 06:10:58;;;;;;;15.63;10.27;;;1.70;99.90;;;;;;5113019;28;20210;-65
2023/01/27 06:13:26;;;;;;;15.27;9.73;;;1.80;99.90;;;;;;5112228;28;20682;-65
2023/01/27 06:15:53;;;;;;;13.77;10.10;;;1.80;99.90;;;;;;5112521;28;20227;-65
2023/01/27 06:18:20;;;;;;;16.23;9.77;;;1.80;99.90;;;;;;5112701;28;20230;-65
2023/01/27 06:20:48;;;;;;;12.73;9.17;;;1.80;99.90;;;;;;5112567;28;20204;-65
2023/01/27 06:23:16;;;;;;;11.10;8.60;;;1.80;99.90;;;;;;5112537;28;20218;-64
2023/01/27 06:25:45;;;;;;;12.37;8.83;;;1.90;99.90;;;;;;5112264;28;20614;-63
2023/01/27 06:28:13;;;;;;;11.97;8.70;;;1.90;99.90;;;;;;5112636;28;20208;-63
2023/01/27 06:30:40;;;;;;;11.57;8.53;;;1.80;99.90;;;;;;5112443;28;20289;-64
2023/01/27 06:33:07;;;;;;;11.50;9.10;;;1.80;99.90;;;;;;5112434;28;20211;-65
2023/01/27 06:35:36;;;;;;;13.00;8.97;;;1.90;99.90;;;;;;5112317;28;20253;-65
2023/01/27 06:38:05;;;;;;;12.83;9.50;;;2.00;99.90;;;;;;5112503;28;20476;-64
2023/01/27 06:40:33;;;;;;;14.40;9.53;;;2.00;99.90;;;;;;5112389;28;20230;-64
2023/01/27 06:43:00;;;;;;;12.90;9.70;;;2.10;99.90;;;;;;5111835;28;20207;-64
2023/01/27 06:45:27;;;;;;;12.07;9.23;;;2.20;99.90;;;;;;5112060;28;20219;-64
2023/01/27 06:47:55;;;;;;;11.83;9.10;;;2.20;99.90;;;;;;5112234;28;20256;-62
2023/01/27 06:50:22;;;;;;;12.07;9.23;;;2.20;99.90;;;;;;5111777;28;20690;-62
2023/01/27 06:52:49;;;;;;;10.47;8.03;;;2.20;99.90;;;;;;5111991;28;20273;-63
2023/01/27 06:55:18;;;;;;;10.20;8.03;;;2.30;99.90;;;;;;5112038;28;20218;-61
2023/01/27 06:57:47;;;;;;;10.80;7.17;;;2.20;99.90;;;;;;5112020;28;20598;-63
2023/01/27 07:00:15;;;;;;;10.03;7.17;;;2.20;99.90;;;;;;5112098;28;20204;-63
2023/01/27 07:02:41;;;;;;;9.47;7.33;;;2.10;99.90;;;;;;5111900;28;20210;-63
2023/01/27 07:05:08;;;;;;;10.80;8.00;;;2.00;99.90;;;;;;5112082;28;20210;-63
2023/01/27 07:07:36;;;;;;;9.10;7.30;;;2.10;99.90;;;;;;5112050;28;20575;-62
2023/01/27 07:10:02;;;;;;;11.23;8.30;;;2.00;99.90;;;;;;5112022;28;20629;-62
2023/01/27 07:12:30;;;;;;;11.27;8.00;;;1.90;99.90;;;;;;5111801;28;20218;-62
2023/01/27 07:14:57;;;;;;;10.37;8.03;;;1.90;99.90;;;;;;5112335;28;20203;-63
2023/01/27 07:17:24;;;;;;;11.37;8.70;;;1.90;99.90;;;;;;5111925;28;20273;-63
2023/01/27 07:19:50;;;;;;;11.30;8.13;;;2.00;99.90;;;;;;5112054;28;20207;-65
2023/01/27 07:22:17;;;;;;;11.23;8.30;;;2.10;99.90;;;;;;5111575;28;20203;-62
2023/01/27 07:24:44;;;;;;;11.30;8.30;;;2.20;99.90;;;;;;5111860;28;20469;-64
2023/01/27 07:27:10;;;;;;;10.50;8.33;;;2.30;99.90;;;;;;5111478;28;20232;-64
2023/01/27 07:29:38;;;;;;;12.70;9.03;;;2.30;99.90;;;;;;5111696;28;20735;-62
2023/01/27 07:32:05;;;;;;;12.20;8.87;;;2.40;99.90;;;;;;5111649;28;20265;-64
2023/01/27 07:34:32;;;;;;;11.83;8.90;;;2.60;99.90;;;;;;5111882;28;20261;-61
2023/01/27 07:36:58;;;;;;;13.33;9.57;;;2.70;99.90;;;;;;5111695;28;20234;-62
2023/01/27 07:39:25;;;;;;;11.30;8.50;;;2.60;99.90;;;;;;5115568;28;20207;-62
2023/01/27 07:41:52;;;;;;;14.03;9.47;;;2.80;99.90;;;;;;5115477;28;20235;-62
2023/01/27 07:44:20;;;;;;;12.47;9.30;;;2.70;99.90;;;;;;5115363;28;20611;-62
2023/01/27 07:46:48;;;;;;;12.57;9.23;;;2.70;99.90;;;;;;5115407;28;20310;-62
2023/01/27 07:49:15;;;;;;;12.40;8.67;;;2.60;99.90;;;;;;5115502;28;20200;-62
2023/01/27 07:51:41;;;;;;;12.07;9.43;;;2.50;99.90;;;;;;5115361;28;20207;-62
2023/01/27 07:54:08;;;;;;;12.67;9.03;;;2.40;99.90;;;;;;5115011;28;20252;-62
2023/01/27 07:56:35;;;;;;;15.37;9.80;;;2.30;99.90;;;;;;5115115;28;20296;-63
2023/01/27 07:59:02;;;;;;;13.77;9.93;;;2.20;99.90;;;;;;5115149;28;20210;-63
2023/01/27 08:01:29;;;;;;;14.20;9.60;;;2.20;99.90;;;;;;5115445;28;20199;-64
2023/01/27 08:03:57;;;;;;;15.47;10.43;;;2.10;99.90;;;;;;5115090;28;20212;-61
2023/01/27 08:06:24;;;;;;;14.80;10.43;;;2.20;99.90;;;;;;5115079;28;20223;-64
2023/01/27 08:08:50;;;;;;;15.23;10.37;;;2.20;99.90;;;;;;5115454;28;20207;-64
2023/01/27 08:11:17;;;;;;;15.03;10.30;;;2.10;99.90;;;;;;5115239;28;20233;-65
2023/01/27 08:13:44;;;;;;;16.17;10.70;;;2.00;99.90;;;;;;5114847;28;20559;-62
2023/01/27 08:16:12;;;;;;;14.33;10.80;;;2.00;99.90;;;;;;5115788;28;20246;-63
2023/01/27 08:18:39;;;;;;;18.23;10.90;;;2.10;99.90;;;;;;5116315;28;20208;-64
2023/01/27 08:21:09;;;;;;;14.97;10.27;;;2.10;99.90;;;;;;5115913;28;20650;-64
2023/01/27 08:23:36;;;;;;;17.83;11.90;;;2.20;99.90;;;;;;5116063;28;20203;-64
2023/01/27 08:26:05;;;;;;;16.87;10.93;;;2.20;99.90;;;;;;5116695;28;20288;-61
2023/01/27 08:28:34;;;;;;;17.90;11.63;;;2.30;99.90;;;;;;5115319;28;20230;-62
2023/01/27 08:31:05;;;;;;;17.40;11.17;;;2.40;99.90;;;;;;5114966;28;20233;-63
2023/01/27 08:33:32;;;;;;;17.27;11.67;;;2.40;99.90;;;;;;5114470;28;20203;-63
2023/01/27 08:36:03;;;;;;;18.97;11.93;;;2.50;99.90;;;;;;5114796;28;20646;-62
2023/01/27 08:38:33;;;;;;;20.03;12.17;;;2.50;99.90;;;;;;5115042;28;20203;-62
2023/01/27 08:41:03;;;;;;;20.40;12.93;;;2.40;99.90;;;;;;5114873;28;20210;-62
2023/01/27 08:43:30;;;;;;;21.67;13.17;;;2.30;99.90;;;;;;5114340;28;20232;-63
2023/01/27 08:45:59;;;;;;;19.63;12.87;;;2.30;99.90;;;;;;5114288;28;20223;-63
2023/01/27 08:48:25;;;;;;;19.80;12.23;;;2.30;99.90;;;;;;5114168;28;20208;-62
2023/01/27 08:50:52;;;;;;;19.33;12.73;;;2.40;99.90;;;;;;5113740;28;20686;-63
2023/01/27 08:53:19;;;;;;;21.20;13.37;;;2.40;99.90;;;;;;5114090;28;20215;-63
2023/01/27 08:55:48;;;;;;;21.63;12.93;;;2.60;99.90;;;;;;5114555;28;20276;-63
2023/01/27 08:58:14;;;;;;;21.07;13.37;;;2.60;99.90;;;;;;5114397;28;20228;-63
2023/01/27 09:00:41;;;;;;;18.67;12.33;;;2.70;99.90;;;;;;5113959;28;20694;-63
2023/01/27 09:03:08;;;;;;;20.27;12.37;;;2.70;99.90;;;;;;5114065;28;20212;-62
2023/01/27 09:05:35;;;;;;;19.00;12.67;;;2.80;99.90;;;;;;5113854;28;20245;-63
2023/01/27 09:08:03;;;;;;;21.27;13.07;;;3.00;99.90;;;;;;5113965;28;20210;-63
2023/01/27 09:10:30;;;;;;;19.83;12.37;;;3.20;99.90;;;;;;5113860;28;20679;-63
2023/01/27 09:12:58;;;;;;;19.53;12.27;;;3.30;99.90;;;;;;5113675;28;20207;-64
2023/01/27 09:15:25;;;;;;;18.17;11.63;;;3.40;99.90;;;;;;5113561;28;20232;-63
2023/01/27 09:17:51;;;;;;;17.00;11.23;;;3.50;99.90;;;;;;5113866;28;20220;-63
2023/01/27 09:20:18;;;;;;;15.10;10.67;;;3.60;99.90;;;;;;5113850;28;20203;-63
2023/01/27 09:22:45;;;;;;;17.17;10.97;;;3.50;99.90;;;;;;5114072;28;20261;-64
2023/01/27 09:25:15;;;;;;;18.20;10.93;;;3.50;99.90;;;;;;5114206;28;20200;-63
2023/01/27 09:27:41;;;;;;;17.93;10.80;;;3.60;99.90;;;;;;5113833;28;20235;-62
2023/01/27 09:30:11;;;;;;;13.23;9.67;;;3.50;99.90;;;;;;5114148;28;20210;-63
2023/01/27 09:32:38;;;;;;;17.13;11.10;;;3.30;99.90;;;;;;5114807;28;20261;-62
2023/01/27 09:35:06;;;;;;;15.23;10.17;;;3.20;99.90;;;;;;5114257;28;20215;-64
2023/01/27 09:37:38;;;;;;;15.77;10.13;;;3.30;99.90;;;;;;5113556;28;20223;-63
2023/01/27 09:40:11;;;;;;;17.57;10.63;;;3.50;99.90;;;;;;5113567;28;20290;-62
2023/01/27 09:42:59;;;;;;;16.07;10.13;;;3.40;99.90;;;;;;5113710;28;20211;-62
2023/01/27 09:45:57;;;;;;;13.97;8.90;;;3.30;99.90;;;;;;5113717;28;20280;-63
2023/01/27 09:48:38;;;;;;;12.80;8.30;;;3.10;99.90;;;;;;5110691;28;20204;-64
2023/01/27 09:51:10;;;;;;;13.83;8.77;;;3.10;99.90;;;;;;5113671;28;20203;-63
2023/01/27 09:53:52;;;;;;;13.67;8.17;;;3.10;99.90;;;;;;5113405;28;20280;-63
2023/01/27 09:56:28;;;;;;;11.03;7.87;;;3.20;99.90;;;;;;5113623;28;20703;-63
2023/01/27 09:59:14;;;;;;;11.70;7.17;;;3.30;99.90;;;;;;5114016;28;20203;-64
2023/01/27 10:01:50;;;;;;;13.63;8.73;;;3.40;99.90;;;;;;5113953;28;20212;-64
2023/01/27 10:04:28;;;;;;;14.83;9.37;;;3.50;99.90;;;;;;5113601;28;20271;-64
2023/01/27 10:07:15;;;;;;;18.20;11.23;;;3.60;99.90;;;;;;5113060;28;20222;-63
2023/01/27 10:09:58;;;;;;;14.63;10.37;;;3.80;99.90;;;;;;5112780;28;20594;-63
2023/01/27 10:12:45;;;;;;;10.43;7.40;;;3.80;99.90;;;;;;5112620;28;20207;-63
2023/01/27 10:15:24;;;;;;;11.00;6.83;;;3.80;99.90;;;;;;5112719;28;20666;-64
2023/01/27 10:18:04;;;;;;;8.70;6.50;;;3.80;99.90;;;;;;5112828;28;20231;-64
2023/01/27 10:20:39;;;;;;;8.97;6.50;;;3.80;99.90;;;;;;5112896;28;20203;-64
2023/01/27 10:23:19;;;;;;;9.30;6.73;;;3.80;99.90;;;;;;5113414;28;20210;-64
2023/01/27 10:25:58;;;;;;;10.07;7.03;;;3.70;99.90;;;;;;5112854;28;20284;-64
2023/01/27 10:28:30;;;;;;;9.93;7.13;;;3.60;99.90;;;;;;5112911;28;20203;-63
2023/01/27 10:30:59;;;;;;;8.37;6.50;;;3.70;99.90;;;;;;5112758;28;20497;-63
2023/01/27 10:33:38;;;;;;;8.70;5.93;;;3.90;99.90;;;;;;5112667;28;20284;-64
2023/01/27 10:36:10;;;;;;;8.97;6.30;;;4.10;99.90;;;;;;5112476;28;20223;-65
2023/01/27 10:38:43;;;;;;;8.80;6.47;;;4.20;99.90;;;;;;5112844;28;20234;-65
2023/01/27 10:41:20;;;;;;;9.17;6.83;;;4.10;99.90;;;;;;5112665;28;20203;-64
2023/01/27 10:43:59;;;;;;;9.67;6.60;;;4.00;99.90;;;;;;5112247;28;20268;-64
2023/01/27 10:46:34;;;;;;;9.27;6.27;;;4.00;99.90;;;;;;5112182;28;20226;-64
2023/01/27 10:49:06;;;;;;;9.10;6.50;;;4.10;99.90;;;;;;5112115;28;20210;-64
2023/01/27 10:51:37;;;;;;;9.93;7.07;;;4.10;99.90;;;;;;5112424;28;20206;-64
2023/01/27 10:54:08;;;;;;;9.73;8.02;;;4.00;99.90;;;;;;5106610;28;20438;-64
2023/01/27 10:56:41;;;;;;;10.27;7.43;;;4.00;99.90;;;;;;5110300;28;20227;-65
2023/01/27 10:59:18;;;;;;;9.23;6.73;;;3.90;99.90;;;;;;5090811;28;20336;-65
2023/01/27 11:01:48;;;;;;;11.37;7.47;;;3.90;99.90;;;;;;5090762;28;20245;-64
2023/01/27 11:04:25;;;;;;;9.97;7.17;;;3.80;99.90;;;;;;5090521;28;20492;-64
2023/01/27 11:06:53;;;;;;;12.03;8.37;;;3.90;99.90;;;;;;5090518;28;20231;-64
2023/01/27 11:09:26;;;;;;;11.27;8.03;;;3.90;99.90;;;;;;5090808;28;20204;-64
2023/01/27 11:11:57;;;;;;;11.50;7.60;;;3.90;99.90;;;;;;5090616;28;20533;-64
2023/01/27 11:14:30;;;;;;;11.90;7.87;;;3.90;99.90;;;;;;5094588;28;20200;-63
2023/01/27 11:17:03;;;;;;;14.63;8.80;;;4.00;99.90;;;;;;5094595;28;20228;-61
2023/01/27 11:19:40;;;;;;;11.53;8.30;;;4.00;99.90;;;;;;5094823;28;20215;-63
2023/01/27 11:22:16;;;;;;;14.20;8.90;;;4.00;99.90;;;;;;5094535;28;20294;-63
2023/01/27 11:24:47;;;;;;;12.80;8.57;;;4.10;99.90;;;;;;5094671;28;20208;-65
2023/01/27 11:27:22;;;;;;;13.23;8.23;;;4.10;99.90;;;;;;5094108;28;20232;-65
2023/01/27 11:29:55;;;;;;;14.80;9.37;;;4.20;99.90;;;;;;5094305;28;20702;-66
2023/01/27 11:32:33;;;;;;;12.97;8.37;;;4.30;99.90;;;;;;5094353;28;20209;-64
2023/01/27 11:35:04;;;;;;;13.00;8.60;;;4.30;99.90;;;;;;5094718;28;20196;-64
2023/01/27 11:37:34;;;;;;;14.33;10.13;;;4.30;99.90;;;;;;5094446;28;20227;-64
2023/01/27 11:40:01;;;;;;;16.10;9.83;;;4.30;99.90;;;;;;5094003;28;20215;-62
2023/01/27 11:42:32;;;;;;;16.57;9.97;;;4.30;99.90;;;;;;5094030;28;20208;-63
2023/01/27 11:45:00;;;;;;;16.97;10.40;;;4.20;99.90;;;;;;5094474;28;20270;-63
2023/01/27 11:47:29;;;;;;;13.30;9.53;;;4.20;99.90;;;;;;5093842;28;20257;-63
2023/01/27 11:49:57;;;;;;;13.93;9.50;;;4.10;99.90;;;;;;5094410;28;20204;-63
2023/01/27 11:52:27;;;;;;;16.80;10.13;;;4.00;99.90;;;;;;5093659;28;20200;-64
2023/01/27 11:55:01;;;;;;;16.47;10.53;;;3.90;99.90;;;;;;5094353;28;20208;-64
2023/01/27 11:57:28;;;;;;;16.67;10.37;;;3.90;99.90;;;;;;5094452;28;20224;-67
2023/01/27 11:59:59;;;;;;;14.73;9.93;;;3.80;99.90;;;;;;5093905;28;20208;-62
2023/01/27 12:02:32;;;;;;;16.00;9.83;;;3.70;99.90;;;;;;5093889;28;20291;-63
2023/01/27 12:05:04;;;;;;;16.07;10.63;;;3.60;99.90;;;;;;5093777;28;20435;-64
2023/01/27 12:07:43;;;;;;;13.60;9.73;;;3.60;99.90;;;;;;5093956;28;20207;-63
2023/01/27 12:10:30;;;;;;;18.43;11.37;;;3.70;99.90;;;;;;5093796;28;20265;-63
2023/01/27 12:13:01;;;;;;;14.63;10.30;;;3.70;99.90;;;;;;5093675;28;20222;-65
2023/01/27 12:15:30;;;;;;;17.60;11.50;;;3.80;99.90;;;;;;5094259;28;20228;-62
2023/01/27 12:18:00;;;;;;;15.33;10.33;;;3.70;99.90;;;;;;5093233;28;20224;-64
2023/01/27 12:20:33;;;;;;;16.60;10.60;;;3.70;99.90;;;;;;5094174;28;20261;-63
2023/01/27 12:23:06;;;;;;;17.00;10.40;;;3.70;99.90;;;;;;5092388;28;20265;-68
2023/01/27 12:25:43;;;;;;;16.40;11.27;;;3.80;99.90;;;;;;5082669;28;20235;-64
2023/01/27 12:28:23;;;;;;;15.50;10.67;;;3.80;99.90;;;;;;5093435;28;20667;-62
2023/01/27 12:30:52;;;;;;;18.47;11.70;;;3.80;99.90;;;;;;5093846;28;20330;-62
2023/01/27 12:33:25;;;;;;;20.33;11.27;;;4.00;99.90;;;;;;5094723;28;20212;-60
2023/01/27 12:35:52;;;;;;;17.37;11.63;;;4.00;99.90;;;;;;5095189;28;20228;-61
2023/01/27 12:38:23;;;;;;;14.93;10.50;;;4.00;99.90;;;;;;5095204;28;20227;-62
2023/01/27 12:40:58;;;;;;;17.00;12.20;;;3.90;99.90;;;;;;5093940;28;20215;-65
2023/01/27 12:43:24;;;;;;;19.03;11.83;;;4.00;99.90;;;;;;5093665;28;20207;-62
2023/01/27 12:46:05;;;;;;;21.63;12.23;;;4.00;99.90;;;;;;5093657;28;20258;-60
2023/01/27 12:48:35;;;;;;;21.97;13.03;;;3.90;99.90;;;;;;5093800;28;20289;-61
2023/01/27 12:51:06;;;;;;;21.47;12.87;;;3.90;99.90;;;;;;5093457;28;20641;-61
2023/01/27 12:53:34;;;;;;;20.53;12.87;;;3.90;99.90;;;;;;5092673;28;20208;-61
2023/01/27 12:56:09;;;;;;;19.17;12.27;;;3.90;99.90;;;;;;5092927;28;20224;-61
2023/01/27 12:58:39;;;;;;;18.23;12.10;;;4.00;99.90;;;;;;5093114;28;20224;-61
2023/01/27 13:01:18;;;;;;;20.37;13.50;;;4.00;99.90;;;;;;5093252;28;20581;-61
2023/01/27 13:03:48;;;;;;;17.47;11.80;;;4.10;99.90;;;;;;5093113;28;20636;-63
2023/01/27 13:06:16;;;;;;;22.30;14.13;;;4.10;99.90;;;;;;5092686;28;20273;-62
2023/01/27 13:08:45;;;;;;;21.13;12.83;;;4.10;99.90;;;;;;5093589;28;20265;-61
2023/01/27 13:11:12;;;;;;;19.45;14.35;;;4.10;99.90;;;;;;5092217;28;20429;-61
2023/01/27 13:13:48;;;;;;;17.93;12.73;;;4.20;99.90;;;;;;5092992;28;20211;-64
2023/01/27 13:16:17;;;;;;;18.60;12.40;;;4.30;99.90;;;;;;5092984;28;20505;-65
2023/01/27 13:18:53;;;;;;;20.03;12.40;;;4.20;99.90;;;;;;5092598;28;20216;-63
2023/01/27 13:21:23;;;;;;;18.07;11.63;;;4.10;99.90;;;;;;5096696;28;20215;-64
2023/01/27 13:23:53;;;;;;;20.27;12.83;;;3.90;99.90;;;;;;5096820;28;20661;-62